DucheSS Of Scandinavia — OUZI2 — position and weather

sailwx.info

Track history (hours):
 
Tides and Currents Weather Stations Pressure Air Temp Water Temp Dewpoint Dewpoint Depression Visibility Wind Speed Wind Dir Waves Ship Positions

DucheSS Of Scandinavia

Operator: DFDS A/S

Last reported at 2014-Oct-02 05:33 UTC. Time now 2014-Oct-02 06:31 UTC.
Position N 59°01' E 010°25'.

Length 134 m; draft 5.2 m.

Type: Passenger vessel. MMSI: 219002929.

Date/timePositionNaut miles runAvg speedWind from/ knotsBaromVisibWave heightAir tempDewpointWater temp
2014-Oct-02 05:33N 59°01' E 010°25'9 9.2
2014-Oct-02 04:33N 59°08' E 010°14'1 1.4
2014-Oct-02 03:33N 59°06' E 010°14'0 0.1
2014-Oct-02 02:33N 59°06' E 010°14'0 0.0
2014-Oct-02 01:31N 59°06' E 010°14'0 0.0
2014-Oct-02 00:29N 59°06' E 010°14'0 0.0
2014-Oct-01 23:32N 59°06' E 010°14'0 0.0
2014-Oct-01 22:33N 59°06' E 010°14'0 0.0
2014-Oct-01 21:31N 59°06' E 010°14'0 0.0
2014-Oct-01 20:22N 59°06' E 010°14'0 0.0
2014-Oct-01 19:20N 59°06' E 010°14'0 0.0
2014-Oct-01 18:32N 59°06' E 010°14'0 0.0
2014-Oct-01 17:33N 59°06' E 010°14'1 1.4
2014-Oct-01 16:33N 59°08' E 010°14'10 9.7
2014-Oct-01 15:33N 59°01' E 010°27'1514.9
2014-Oct-01 14:33N 59°00' E 010°56'9 8.6
2014-Oct-01 13:33N 58°56' E 011°10'1211.8
2014-Oct-01 12:33N 59°01' E 010°50'1615.6
2014-Oct-01 11:33N 59°01' E 010°19'7 7.2
2014-Oct-01 10:33N 59°08' E 010°14'7 6.7
2014-Oct-01 09:33N 59°01' E 010°18'1615.5
2014-Oct-01 08:33N 59°02' E 010°48'1312.6
2014-Oct-01 07:33N 58°56' E 011°10'9 9.0
2014-Oct-01 06:33N 59°00' E 010°55'1615.6
2014-Oct-01 05:33N 59°00' E 010°24'9 9.3
2014-Oct-01 04:33N 59°08' E 010°14'1 1.3
2014-Oct-01 03:33N 59°06' E 010°14'0 0.1
2014-Oct-01 02:32N 59°06' E 010°14'0 0.0
2014-Oct-01 01:27N 59°06' E 010°14'0 0.0
2014-Oct-01 00:34N 59°06' E 010°14'0 0.0
2014-Sep-30 23:28N 59°06' E 010°14'0 0.0
2014-Sep-30 22:32N 59°06' E 010°14'0 0.0
2014-Sep-30 21:33N 59°06' E 010°14'0 0.0
2014-Sep-30 20:33N 59°06' E 010°14'0 0.0
2014-Sep-30 19:34N 59°06' E 010°14'0 0.0
2014-Sep-30 18:33N 59°06' E 010°14'0 0.0
2014-Sep-30 17:33N 59°06' E 010°14'1 1.4
2014-Sep-30 16:34N 59°08' E 010°14'9 9.2
2014-Sep-30 15:33N 59°01' E 010°25'1515.3
2014-Sep-30 14:33N 59°00' E 010°55'9 8.9
2014-Sep-30 13:34N 58°56' E 011°10'1211.8
2014-Sep-30 12:33N 59°01' E 010°50'1515.4
2014-Sep-30 11:33N 59°01' E 010°20'7 7.3
2014-Sep-30 10:33N 59°08' E 010°14'7 6.7
2014-Sep-30 09:33N 59°01' E 010°19'1615.8
2014-Sep-30 08:33N 59°02' E 010°49'1212.1
2014-Sep-30 07:33N 58°56' E 011°10'9 8.7
2014-Sep-30 06:33N 59°00' E 010°56'1615.6
2014-Sep-30 05:33N 59°00' E 010°25'10 9.6
2014-Sep-30 04:33N 59°08' E 010°14'1 1.2
2014-Sep-30 03:33N 59°06' E 010°14'0 0.2
2014-Sep-30 02:21N 59°06' E 010°14'0 0.0
2014-Sep-30 01:30N 59°06' E 010°14'0 0.0
2014-Sep-30 00:31N 59°06' E 010°14'0 0.0
2014-Sep-29 23:32N 59°06' E 010°14'0 0.0
2014-Sep-29 22:32N 59°06' E 010°14'0 0.0
2014-Sep-29 21:33N 59°06' E 010°14'0 0.0
2014-Sep-29 20:31N 59°06' E 010°14'0 0.0
2014-Sep-29 19:31N 59°06' E 010°14'0 0.0
2014-Sep-29 18:32N 59°06' E 010°14'0 0.0
2014-Sep-29 17:33N 59°06' E 010°14'1 1.4
2014-Sep-29 16:33N 59°08' E 010°14'9 9.0
2014-Sep-29 15:33N 59°01' E 010°25'1515.4
2014-Sep-29 14:33N 59°00' E 010°55'9 8.9
2014-Sep-29 13:33N 58°56' E 011°10'1211.6
2014-Sep-29 12:33N 59°01' E 010°50'1615.6
2014-Sep-29 11:33N 59°01' E 010°20'7 7.3
2014-Sep-29 10:33N 59°08' E 010°14'7 6.8
2014-Sep-29 09:33N 59°01' E 010°19'1615.7
2014-Sep-29 08:33N 59°02' E 010°49'1212.0
2014-Sep-29 07:33N 58°56' E 011°10'9 9.1
2014-Sep-29 06:33N 59°00' E 010°55'1615.8
2014-Sep-29 05:34N 59°01' E 010°24'9 8.7
2014-Sep-29 04:33N 59°08' E 010°14'1 1.3
2014-Sep-29 03:34N 59°06' E 010°14'0 0.1
2014-Sep-29 02:31N 59°06' E 010°14'0 0.0
2014-Sep-29 01:32N 59°06' E 010°14'0 0.0
2014-Sep-29 00:33N 59°06' E 010°14'0 0.0
2014-Sep-28 23:33N 59°06' E 010°14'0 0.0
2014-Sep-28 22:31N 59°06' E 010°14'0 0.0
2014-Sep-28 21:23N 59°06' E 010°14'0 0.0
2014-Sep-28 20:29N 59°06' E 010°14'0 0.0
2014-Sep-28 19:32N 59°06' E 010°14'0 0.0
2014-Sep-28 18:33N 59°06' E 010°14'0 0.0
2014-Sep-28 17:33N 59°06' E 010°14'1 1.4
2014-Sep-28 16:33N 59°08' E 010°14'1010.2
2014-Sep-28 15:33N 59°01' E 010°28'1515.0
2014-Sep-28 14:33N 59°00' E 010°57'8 7.9
2014-Sep-28 13:33N 58°56' E 011°10'1212.1
2014-Sep-28 12:33N 59°01' E 010°49'1515.5
2014-Sep-28 11:33N 59°01' E 010°19'7 7.1
2014-Sep-28 10:33N 59°08' E 010°14'7 6.6
2014-Sep-28 09:34N 59°01' E 010°18'1615.5
2014-Sep-28 08:33N 59°02' E 010°48'1312.5
2014-Sep-28 07:33N 58°56' E 011°10'8 8.4
2014-Sep-28 06:33N 59°00' E 010°56'1616.0
2014-Sep-28 05:33N 59°01' E 010°25'9 9.1
2014-Sep-28 04:33N 59°08' E 010°14'1 1.4
2014-Sep-28 03:33N 59°06' E 010°14'0 0.0
2014-Sep-28 02:33N 59°06' E 010°14'0 0.0
2014-Sep-28 01:34N 59°06' E 010°14'0 0.0
2014-Sep-28 00:31N 59°06' E 010°14'0 0.0
2014-Sep-27 23:32N 59°06' E 010°14'0 0.0
2014-Sep-27 22:30N 59°06' E 010°14'0 0.0
2014-Sep-27 21:30N 59°06' E 010°14'0 0.0
2014-Sep-27 20:31N 59°06' E 010°14'0 0.0
2014-Sep-27 19:32N 59°06' E 010°14'0 0.0
2014-Sep-27 18:33N 59°06' E 010°14'0 0.0
2014-Sep-27 17:33N 59°06' E 010°14'1 1.4
2014-Sep-27 16:33N 59°08' E 010°14'1010.2
2014-Sep-27 15:33N 59°01' E 010°28'1515.0
2014-Sep-27 14:33N 59°00' E 010°57'8 8.0
2014-Sep-27 13:33N 58°56' E 011°10'1312.5
2014-Sep-27 12:33N 59°02' E 010°48'1615.7
2014-Sep-27 11:33N 59°01' E 010°18'7 6.6
2014-Sep-27 10:33N 59°08' E 010°14'8 8.4
2014-Sep-27 09:33N 59°01' E 010°23'1514.8
2014-Sep-27 08:33N 59°01' E 010°52'1110.7
2014-Sep-27 07:33N 58°56' E 011°10'10 9.6
2014-Sep-27 06:33N 59°01' E 010°54'1615.6
2014-Sep-27 05:33N 59°01' E 010°24'9 8.6
2014-Sep-27 04:34N 59°08' E 010°14'1 1.4
2014-Sep-27 03:33N 59°06' E 010°14'0 0.1
2014-Sep-27 02:31N 59°06' E 010°14'0 0.0
2014-Sep-27 01:28N 59°06' E 010°14'0 0.0
2014-Sep-27 00:29N 59°06' E 010°14'0 0.0
2014-Sep-26 23:33N 59°06' E 010°14'0 0.0
2014-Sep-26 22:33N 59°06' E 010°14'0 0.0
2014-Sep-26 21:31N 59°06' E 010°14'0 0.0
2014-Sep-26 20:32N 59°06' E 010°14'0 0.0
2014-Sep-26 19:32N 59°06' E 010°14'0 0.0
2014-Sep-26 18:33N 59°06' E 010°14'0 0.0
2014-Sep-26 17:33N 59°06' E 010°14'1 1.4
2014-Sep-26 16:33N 59°08' E 010°14'1010.2
2014-Sep-26 15:33N 59°01' E 010°28'1514.7
2014-Sep-26 14:33N 59°00' E 010°57'8 8.2
2014-Sep-26 13:33N 58°56' E 011°10'1313.2
2014-Sep-26 12:33N 59°02' E 010°47'1616.4
2014-Sep-26 11:33N 59°02' E 010°15'5 5.2
2014-Sep-26 10:33N 59°08' E 010°14'7 7.3
2014-Sep-26 09:33N 59°01' E 010°21'1515.1
2014-Sep-26 08:34N 59°01' E 010°50'1211.7
2014-Sep-26 07:33N 58°56' E 011°10'9 8.8
2014-Sep-26 06:33N 59°00' E 010°55'1616.1
2014-Sep-26 05:33N 59°01' E 010°24'9 8.7
2014-Sep-26 04:33N 59°08' E 010°14'1 1.4
2014-Sep-26 03:34N 59°06' E 010°14'0 0.0
2014-Sep-26 02:33N 59°06' E 010°14'0 0.0
2014-Sep-26 01:33N 59°06' E 010°14'0 0.0
2014-Sep-26 00:33N 59°06' E 010°14'0 0.0
2014-Sep-25 23:33N 59°06' E 010°14'0 0.0
2014-Sep-25 22:33N 59°06' E 010°14'0 0.0
2014-Sep-25 21:33N 59°06' E 010°14'0 0.0
2014-Sep-25 20:33N 59°06' E 010°14'0 0.0
2014-Sep-25 19:33N 59°06' E 010°14'0 0.0
2014-Sep-25 18:33N 59°06' E 010°14'0 0.0
2014-Sep-25 17:33N 59°06' E 010°14'1 1.4
2014-Sep-25 16:33N 59°08' E 010°14'1010.3
2014-Sep-25 15:33N 59°01' E 010°29'1514.8
2014-Sep-25 14:33N 59°00' E 010°57'8 7.8
2014-Sep-25 13:34N 58°56' E 011°10'1212.0
2014-Sep-25 12:33N 59°01' E 010°49'1616.1
2014-Sep-25 11:33N 59°01' E 010°18'7 6.8
2014-Sep-25 10:33N 59°08' E 010°14'7 7.0
2014-Sep-25 09:33N 59°01' E 010°20'6 0.6
2014-Sep-25 00:13N 59°06' E 010°14'0 0.0
2014-Sep-24 23:31N 59°06' E 010°14'0 0.0
2014-Sep-24 22:26N 59°06' E 010°14'0 0.0
2014-Sep-24 21:09N 59°06' E 010°14'0 0.0
2014-Sep-24 19:10N 59°06' E 010°14'0 0.0
2014-Sep-24 18:25N 59°06' E 010°14'0 0.0
2014-Sep-24 17:33N 59°06' E 010°14'1 1.4
2014-Sep-24 16:33N 59°08' E 010°14'1010.2
2014-Sep-24 15:33N 59°01' E 010°28'1514.7
2014-Sep-24 14:33N 59°00' E 010°57'8 8.1
2014-Sep-24 13:33N 58°56' E 011°10'1212.0
2014-Sep-24 12:33N 59°01' E 010°49'1616.0
2014-Sep-24 11:33N 59°01' E 010°18'7 6.7
2014-Sep-24 10:33N 59°08' E 010°14'7 6.8
2014-Sep-24 09:33N 59°01' E 010°19'1514.6
2014-Sep-24 08:33N 59°02' E 010°47'1312.9
2014-Sep-24 07:33N 58°56' E 011°10'8 7.9
2014-Sep-24 06:33N 58°60' E 010°57'1616.1
2014-Sep-24 05:33N 59°01' E 010°26'9 9.5
2014-Sep-24 04:34N 59°08' E 010°14'1 1.4
2014-Sep-24 03:33N 59°06' E 010°14'0 0.1
2014-Sep-24 02:12N 59°06' E 010°14'0 0.0
2014-Sep-24 01:28N 59°06' E 010°14'0 0.0
2014-Sep-24 00:31N 59°06' E 010°14'0 0.0
2014-Sep-23 23:32N 59°06' E 010°14'0 0.0
2014-Sep-23 22:33N 59°06' E 010°14'0 0.0
2014-Sep-23 21:33N 59°06' E 010°14'0 0.0
2014-Sep-23 20:28N 59°06' E 010°14'0 0.0
2014-Sep-23 19:29N 59°06' E 010°14'0 0.0
2014-Sep-23 18:29N 59°06' E 010°14'0 0.0
2014-Sep-23 17:33N 59°06' E 010°14'1 1.4
2014-Sep-23 16:33N 59°08' E 010°14'1010.2
2014-Sep-23 15:33N 59°01' E 010°29'1515.0
2014-Sep-23 14:33N 59°00' E 010°58'8 7.6
2014-Sep-23 13:33N 58°56' E 011°10'1212.1
2014-Sep-23 12:33N 59°01' E 010°49'1615.8
2014-Sep-23 11:33N 59°01' E 010°19'7 6.8
2014-Sep-23 10:33N 59°08' E 010°14'7 7.0
2014-Sep-23 09:33N 59°01' E 010°20'1514.6
2014-Sep-23 08:33N 59°02' E 010°48'1312.6
2014-Sep-23 07:33N 58°56' E 011°10'8 7.7
2014-Sep-23 06:33N 58°60' E 010°57'1515.4
2014-Sep-23 05:33N 59°01' E 010°27'10 9.9
2014-Sep-23 04:33N 59°08' E 010°14'1 1.3
2014-Sep-23 03:33N 59°06' E 010°14'0 0.2
2014-Sep-23 02:33N 59°06' E 010°14'0 0.0
2014-Sep-23 01:31N 59°06' E 010°14'0 0.0
2014-Sep-23 00:29N 59°06' E 010°14'0 0.0
2014-Sep-22 23:32N 59°06' E 010°14'0 0.0
2014-Sep-22 22:33N 59°06' E 010°14'0 0.0
2014-Sep-22 21:31N 59°06' E 010°14'0 0.0
2014-Sep-22 20:19N 59°06' E 010°14'0 0.0
2014-Sep-22 19:20N 59°06' E 010°14'0 0.0
2014-Sep-22 18:33N 59°06' E 010°14'0 0.0
2014-Sep-22 17:27N 59°06' E 010°14'1 1.6
2014-Sep-22 16:33N 59°08' E 010°14'9 9.0
2014-Sep-22 15:33N 59°01' E 010°25'1514.9
2014-Sep-22 14:33N 59°01' E 010°54'9 9.4
2014-Sep-22 13:33N 58°56' E 011°10'1111.1
2014-Sep-22 12:33N 59°01' E 010°51'1716.8
2014-Sep-22 11:33N 59°01' E 010°18'7 6.8
2014-Sep-22 10:33N 59°08' E 010°14'7 6.6
2014-Sep-22 09:33N 59°01' E 010°19'1515.4
2014-Sep-22 08:33N 59°02' E 010°48'1312.5
2014-Sep-22 07:33N 58°56' E 011°10'8 7.7
2014-Sep-22 06:33N 59°00' E 010°57'1615.5
2014-Sep-22 05:33N 59°01' E 010°27'  
Track history (hours):
 
Tides and Currents Weather Stations Pressure Air Temp Water Temp Dewpoint Dewpoint Depression Visibility Wind Speed Wind Dir Waves Ship Positions

DucheSS Of Scandinavia

Operator: DFDS A/S

Last reported at 2014-Oct-02 05:33 UTC. Time now 2014-Oct-02 06:31 UTC.
Position N 59°01' E 010°25'.

Length 134 m; draft 5.2 m.

Type: Passenger vessel. MMSI: 219002929.

Date/timePositionNaut miles runAvg speedWind from/ knotsBaromVisibWave heightAir tempDewpointWater temp
2014-Oct-02 05:33N 59°01' E 010°25'9 9.2
2014-Oct-02 04:33N 59°08' E 010°14'1 1.4
2014-Oct-02 03:33N 59°06' E 010°14'0 0.1
2014-Oct-02 02:33N 59°06' E 010°14'0 0.0
2014-Oct-02 01:31N 59°06' E 010°14'0 0.0
2014-Oct-02 00:29N 59°06' E 010°14'0 0.0
2014-Oct-01 23:32N 59°06' E 010°14'0 0.0
2014-Oct-01 22:33N 59°06' E 010°14'0 0.0
2014-Oct-01 21:31N 59°06' E 010°14'0 0.0
2014-Oct-01 20:22N 59°06' E 010°14'0 0.0
2014-Oct-01 19:20N 59°06' E 010°14'0 0.0
2014-Oct-01 18:32N 59°06' E 010°14'0 0.0
2014-Oct-01 17:33N 59°06' E 010°14'1 1.4
2014-Oct-01 16:33N 59°08' E 010°14'10 9.7
2014-Oct-01 15:33N 59°01' E 010°27'1514.9
2014-Oct-01 14:33N 59°00' E 010°56'9 8.6
2014-Oct-01 13:33N 58°56' E 011°10'1211.8
2014-Oct-01 12:33N 59°01' E 010°50'1615.6
2014-Oct-01 11:33N 59°01' E 010°19'7 7.2
2014-Oct-01 10:33N 59°08' E 010°14'7 6.7
2014-Oct-01 09:33N 59°01' E 010°18'1615.5
2014-Oct-01 08:33N 59°02' E 010°48'1312.6
2014-Oct-01 07:33N 58°56' E 011°10'9 9.0
2014-Oct-01 06:33N 59°00' E 010°55'1615.6
2014-Oct-01 05:33N 59°00' E 010°24'9 9.3
2014-Oct-01 04:33N 59°08' E 010°14'1 1.3
2014-Oct-01 03:33N 59°06' E 010°14'0 0.1
2014-Oct-01 02:32N 59°06' E 010°14'0 0.0
2014-Oct-01 01:27N 59°06' E 010°14'0 0.0
2014-Oct-01 00:34N 59°06' E 010°14'0 0.0
2014-Sep-30 23:28N 59°06' E 010°14'0 0.0
2014-Sep-30 22:32N 59°06' E 010°14'0 0.0
2014-Sep-30 21:33N 59°06' E 010°14'0 0.0
2014-Sep-30 20:33N 59°06' E 010°14'0 0.0
2014-Sep-30 19:34N 59°06' E 010°14'0 0.0
2014-Sep-30 18:33N 59°06' E 010°14'0 0.0
2014-Sep-30 17:33N 59°06' E 010°14'1 1.4
2014-Sep-30 16:34N 59°08' E 010°14'9 9.2
2014-Sep-30 15:33N 59°01' E 010°25'1515.3
2014-Sep-30 14:33N 59°00' E 010°55'9 8.9
2014-Sep-30 13:34N 58°56' E 011°10'1211.8
2014-Sep-30 12:33N 59°01' E 010°50'1515.4
2014-Sep-30 11:33N 59°01' E 010°20'7 7.3
2014-Sep-30 10:33N 59°08' E 010°14'7 6.7
2014-Sep-30 09:33N 59°01' E 010°19'1615.8
2014-Sep-30 08:33N 59°02' E 010°49'1212.1
2014-Sep-30 07:33N 58°56' E 011°10'9 8.7
2014-Sep-30 06:33N 59°00' E 010°56'1615.6
2014-Sep-30 05:33N 59°00' E 010°25'10 9.6
2014-Sep-30 04:33N 59°08' E 010°14'1 1.2
2014-Sep-30 03:33N 59°06' E 010°14'0 0.2
2014-Sep-30 02:21N 59°06' E 010°14'0 0.0
2014-Sep-30 01:30N 59°06' E 010°14'0 0.0
2014-Sep-30 00:31N 59°06' E 010°14'0 0.0
2014-Sep-29 23:32N 59°06' E 010°14'0 0.0
2014-Sep-29 22:32N 59°06' E 010°14'0 0.0
2014-Sep-29 21:33N 59°06' E 010°14'0 0.0
2014-Sep-29 20:31N 59°06' E 010°14'0 0.0
2014-Sep-29 19:31N 59°06' E 010°14'0 0.0
2014-Sep-29 18:32N 59°06' E 010°14'0 0.0
2014-Sep-29 17:33N 59°06' E 010°14'1 1.4
2014-Sep-29 16:33N 59°08' E 010°14'9 9.0
2014-Sep-29 15:33N 59°01' E 010°25'1515.4
2014-Sep-29 14:33N 59°00' E 010°55'9 8.9
2014-Sep-29 13:33N 58°56' E 011°10'1211.6
2014-Sep-29 12:33N 59°01' E 010°50'1615.6
2014-Sep-29 11:33N 59°01' E 010°20'7 7.3
2014-Sep-29 10:33N 59°08' E 010°14'7 6.8
2014-Sep-29 09:33N 59°01' E 010°19'1615.7
2014-Sep-29 08:33N 59°02' E 010°49'1212.0
2014-Sep-29 07:33N 58°56' E 011°10'9 9.1
2014-Sep-29 06:33N 59°00' E 010°55'1615.8
2014-Sep-29 05:34N 59°01' E 010°24'9 8.7
2014-Sep-29 04:33N 59°08' E 010°14'1 1.3
2014-Sep-29 03:34N 59°06' E 010°14'0 0.1
2014-Sep-29 02:31N 59°06' E 010°14'0 0.0
2014-Sep-29 01:32N 59°06' E 010°14'0 0.0
2014-Sep-29 00:33N 59°06' E 010°14'0 0.0
2014-Sep-28 23:33N 59°06' E 010°14'0 0.0
2014-Sep-28 22:31N 59°06' E 010°14'0 0.0
2014-Sep-28 21:23N 59°06' E 010°14'0 0.0
2014-Sep-28 20:29N 59°06' E 010°14'0 0.0
2014-Sep-28 19:32N 59°06' E 010°14'0 0.0
2014-Sep-28 18:33N 59°06' E 010°14'0 0.0
2014-Sep-28 17:33N 59°06' E 010°14'1 1.4
2014-Sep-28 16:33N 59°08' E 010°14'1010.2
2014-Sep-28 15:33N 59°01' E 010°28'1515.0
2014-Sep-28 14:33N 59°00' E 010°57'8 7.9
2014-Sep-28 13:33N 58°56' E 011°10'1212.1
2014-Sep-28 12:33N 59°01' E 010°49'1515.5
2014-Sep-28 11:33N 59°01' E 010°19'7 7.1
2014-Sep-28 10:33N 59°08' E 010°14'7 6.6
2014-Sep-28 09:34N 59°01' E 010°18'1615.5
2014-Sep-28 08:33N 59°02' E 010°48'1312.5
2014-Sep-28 07:33N 58°56' E 011°10'8 8.4
2014-Sep-28 06:33N 59°00' E 010°56'1616.0
2014-Sep-28 05:33N 59°01' E 010°25'9 9.1
2014-Sep-28 04:33N 59°08' E 010°14'1 1.4
2014-Sep-28 03:33N 59°06' E 010°14'0 0.0
2014-Sep-28 02:33N 59°06' E 010°14'0 0.0
2014-Sep-28 01:34N 59°06' E 010°14'0 0.0
2014-Sep-28 00:31N 59°06' E 010°14'0 0.0
2014-Sep-27 23:32N 59°06' E 010°14'0 0.0
2014-Sep-27 22:30N 59°06' E 010°14'0 0.0
2014-Sep-27 21:30N 59°06' E 010°14'0 0.0
2014-Sep-27 20:31N 59°06' E 010°14'0 0.0
2014-Sep-27 19:32N 59°06' E 010°14'0 0.0
2014-Sep-27 18:33N 59°06' E 010°14'0 0.0
2014-Sep-27 17:33N 59°06' E 010°14'1 1.4
2014-Sep-27 16:33N 59°08' E 010°14'1010.2
2014-Sep-27 15:33N 59°01' E 010°28'1515.0
2014-Sep-27 14:33N 59°00' E 010°57'8 8.0
2014-Sep-27 13:33N 58°56' E 011°10'1312.5
2014-Sep-27 12:33N 59°02' E 010°48'1615.7
2014-Sep-27 11:33N 59°01' E 010°18'7 6.6
2014-Sep-27 10:33N 59°08' E 010°14'8 8.4
2014-Sep-27 09:33N 59°01' E 010°23'1514.8
2014-Sep-27 08:33N 59°01' E 010°52'1110.7
2014-Sep-27 07:33N 58°56' E 011°10'10 9.6
2014-Sep-27 06:33N 59°01' E 010°54'1615.6
2014-Sep-27 05:33N 59°01' E 010°24'9 8.6
2014-Sep-27 04:34N 59°08' E 010°14'1 1.4
2014-Sep-27 03:33N 59°06' E 010°14'0 0.1
2014-Sep-27 02:31N 59°06' E 010°14'0 0.0
2014-Sep-27 01:28N 59°06' E 010°14'0 0.0
2014-Sep-27 00:29N 59°06' E 010°14'0 0.0
2014-Sep-26 23:33N 59°06' E 010°14'0 0.0
2014-Sep-26 22:33N 59°06' E 010°14'0 0.0
2014-Sep-26 21:31N 59°06' E 010°14'0 0.0
2014-Sep-26 20:32N 59°06' E 010°14'0 0.0
2014-Sep-26 19:32N 59°06' E 010°14'0 0.0
2014-Sep-26 18:33N 59°06' E 010°14'0 0.0
2014-Sep-26 17:33N 59°06' E 010°14'1 1.4
2014-Sep-26 16:33N 59°08' E 010°14'1010.2
2014-Sep-26 15:33N 59°01' E 010°28'1514.7
2014-Sep-26 14:33N 59°00' E 010°57'8 8.2
2014-Sep-26 13:33N 58°56' E 011°10'1313.2
2014-Sep-26 12:33N 59°02' E 010°47'1616.4
2014-Sep-26 11:33N 59°02' E 010°15'5 5.2
2014-Sep-26 10:33N 59°08' E 010°14'7 7.3
2014-Sep-26 09:33N 59°01' E 010°21'1515.1
2014-Sep-26 08:34N 59°01' E 010°50'1211.7
2014-Sep-26 07:33N 58°56' E 011°10'9 8.8
2014-Sep-26 06:33N 59°00' E 010°55'1616.1
2014-Sep-26 05:33N 59°01' E 010°24'9 8.7
2014-Sep-26 04:33N 59°08' E 010°14'1 1.4
2014-Sep-26 03:34N 59°06' E 010°14'0 0.0
2014-Sep-26 02:33N 59°06' E 010°14'0 0.0
2014-Sep-26 01:33N 59°06' E 010°14'0 0.0
2014-Sep-26 00:33N 59°06' E 010°14'0 0.0
2014-Sep-25 23:33N 59°06' E 010°14'0 0.0
2014-Sep-25 22:33N 59°06' E 010°14'0 0.0
2014-Sep-25 21:33N 59°06' E 010°14'0 0.0
2014-Sep-25 20:33N 59°06' E 010°14'0 0.0
2014-Sep-25 19:33N 59°06' E 010°14'0 0.0
2014-Sep-25 18:33N 59°06' E 010°14'0 0.0
2014-Sep-25 17:33N 59°06' E 010°14'1 1.4
2014-Sep-25 16:33N 59°08' E 010°14'1010.3
2014-Sep-25 15:33N 59°01' E 010°29'1514.8
2014-Sep-25 14:33N 59°00' E 010°57'8 7.8
2014-Sep-25 13:34N 58°56' E 011°10'1212.0
2014-Sep-25 12:33N 59°01' E 010°49'1616.1
2014-Sep-25 11:33N 59°01' E 010°18'7 6.8
2014-Sep-25 10:33N 59°08' E 010°14'7 7.0
2014-Sep-25 09:33N 59°01' E 010°20'6 0.6
2014-Sep-25 00:13N 59°06' E 010°14'0 0.0
2014-Sep-24 23:31N 59°06' E 010°14'0 0.0
2014-Sep-24 22:26N 59°06' E 010°14'0 0.0
2014-Sep-24 21:09N 59°06' E 010°14'0 0.0
2014-Sep-24 19:10N 59°06' E 010°14'0 0.0
2014-Sep-24 18:25N 59°06' E 010°14'0 0.0
2014-Sep-24 17:33N 59°06' E 010°14'1 1.4
2014-Sep-24 16:33N 59°08' E 010°14'1010.2
2014-Sep-24 15:33N 59°01' E 010°28'1514.7
2014-Sep-24 14:33N 59°00' E 010°57'8 8.1
2014-Sep-24 13:33N 58°56' E 011°10'1212.0
2014-Sep-24 12:33N 59°01' E 010°49'1616.0
2014-Sep-24 11:33N 59°01' E 010°18'7 6.7
2014-Sep-24 10:33N 59°08' E 010°14'7 6.8
2014-Sep-24 09:33N 59°01' E 010°19'1514.6
2014-Sep-24 08:33N 59°02' E 010°47'1312.9
2014-Sep-24 07:33N 58°56' E 011°10'8 7.9
2014-Sep-24 06:33N 58°60' E 010°57'1616.1
2014-Sep-24 05:33N 59°01' E 010°26'9 9.5
2014-Sep-24 04:34N 59°08' E 010°14'1 1.4
2014-Sep-24 03:33N 59°06' E 010°14'0 0.1
2014-Sep-24 02:12N 59°06' E 010°14'0 0.0
2014-Sep-24 01:28N 59°06' E 010°14'0 0.0
2014-Sep-24 00:31N 59°06' E 010°14'0 0.0
2014-Sep-23 23:32N 59°06' E 010°14'0 0.0
2014-Sep-23 22:33N 59°06' E 010°14'0 0.0
2014-Sep-23 21:33N 59°06' E 010°14'0 0.0
2014-Sep-23 20:28N 59°06' E 010°14'0 0.0
2014-Sep-23 19:29N 59°06' E 010°14'0 0.0
2014-Sep-23 18:29N 59°06' E 010°14'0 0.0
2014-Sep-23 17:33N 59°06' E 010°14'1 1.4
2014-Sep-23 16:33N 59°08' E 010°14'1010.2
2014-Sep-23 15:33N 59°01' E 010°29'1515.0
2014-Sep-23 14:33N 59°00' E 010°58'8 7.6
2014-Sep-23 13:33N 58°56' E 011°10'1212.1
2014-Sep-23 12:33N 59°01' E 010°49'1615.8
2014-Sep-23 11:33N 59°01' E 010°19'7 6.8
2014-Sep-23 10:33N 59°08' E 010°14'7 7.0
2014-Sep-23 09:33N 59°01' E 010°20'1514.6
2014-Sep-23 08:33N 59°02' E 010°48'1312.6
2014-Sep-23 07:33N 58°56' E 011°10'8 7.7
2014-Sep-23 06:33N 58°60' E 010°57'1515.4
2014-Sep-23 05:33N 59°01' E 010°27'10 9.9
2014-Sep-23 04:33N 59°08' E 010°14'1 1.3
2014-Sep-23 03:33N 59°06' E 010°14'0 0.2
2014-Sep-23 02:33N 59°06' E 010°14'0 0.0
2014-Sep-23 01:31N 59°06' E 010°14'0 0.0
2014-Sep-23 00:29N 59°06' E 010°14'0 0.0
2014-Sep-22 23:32N 59°06' E 010°14'0 0.0
2014-Sep-22 22:33N 59°06' E 010°14'0 0.0
2014-Sep-22 21:31N 59°06' E 010°14'0 0.0
2014-Sep-22 20:19N 59°06' E 010°14'0 0.0
2014-Sep-22 19:20N 59°06' E 010°14'0 0.0
2014-Sep-22 18:33N 59°06' E 010°14'0 0.0
2014-Sep-22 17:27N 59°06' E 010°14'1 1.6
2014-Sep-22 16:33N 59°08' E 010°14'9 9.0
2014-Sep-22 15:33N 59°01' E 010°25'1514.9
2014-Sep-22 14:33N 59°01' E 010°54'9 9.4
2014-Sep-22 13:33N 58°56' E 011°10'1111.1
2014-Sep-22 12:33N 59°01' E 010°51'1716.8
2014-Sep-22 11:33N 59°01' E 010°18'7 6.8
2014-Sep-22 10:33N 59°08' E 010°14'7 6.6
2014-Sep-22 09:33N 59°01' E 010°19'1515.4
2014-Sep-22 08:33N 59°02' E 010°48'1312.5
2014-Sep-22 07:33N 58°56' E 011°10'8 7.7
2014-Sep-22 06:33N 59°00' E 010°57'1615.5
2014-Sep-22 05:33N 59°01' E 010°27'  

Dump ship's entire track history